sensor_id;sensor_type;location;lat;lon;timestamp;temperature;humidity
72770;DHT22;60893;50.848;12.072;2022-08-11T00:11:19;22.20;42.40
72770;DHT22;60893;50.848;12.072;2022-08-11T00:26:31;21.70;42.90
72770;DHT22;60893;50.848;12.072;2022-08-11T00:41:41;21.30;43.70
72770;DHT22;60893;50.848;12.072;2022-08-11T01:12:55;21.00;44.30
72770;DHT22;60893;50.848;12.072;2022-08-11T01:44:12;20.30;46.40
72770;DHT22;60893;50.848;12.072;2022-08-11T02:00:05;20.00;46.80
72770;DHT22;60893;50.848;12.072;2022-08-11T02:15:19;19.70;47.80
72770;DHT22;60893;50.848;12.072;2022-08-11T02:30:33;19.70;48.00
72770;DHT22;60893;50.848;12.072;2022-08-11T02:45:48;19.60;48.30
72770;DHT22;60893;50.848;12.072;2022-08-11T03:01:05;19.30;48.80
72770;DHT22;60893;50.848;12.072;2022-08-11T03:16:23;19.00;49.40
72770;DHT22;60893;50.848;12.072;2022-08-11T03:31:55;18.40;50.60
72770;DHT22;60893;50.848;12.072;2022-08-11T03:47:21;18.40;51.20
72770;DHT22;60893;50.848;12.072;2022-08-11T12:25:52;30.50;29.60
72770;DHT22;60893;50.848;12.072;2022-08-11T12:41:32;32.80;29.10
72770;DHT22;60893;50.848;12.072;2022-08-11T12:57:02;35.60;25.80
72770;DHT22;60893;50.848;12.072;2022-08-11T13:12:41;37.40;23.50
72770;DHT22;60893;50.848;12.072;2022-08-11T13:27:55;38.90;22.60
72770;DHT22;60893;50.848;12.072;2022-08-11T13:43:05;40.00;21.40
72770;DHT22;60893;50.848;12.072;2022-08-11T13:58:12;40.90;20.50
72770;DHT22;60893;50.848;12.072;2022-08-11T14:13:41;41.30;19.80
72770;DHT22;60893;50.848;12.072;2022-08-11T14:28:53;41.90;19.00
72770;DHT22;60893;50.848;12.072;2022-08-11T14:43:59;41.30;18.90
72770;DHT22;60893;50.848;12.072;2022-08-11T14:59:23;41.40;18.90
72770;DHT22;60893;50.848;12.072;2022-08-11T15:14:29;42.00;18.70
72770;DHT22;60893;50.848;12.072;2022-08-11T15:30:01;42.40;18.20
72770;DHT22;60893;50.848;12.072;2022-08-11T15:45:38;42.60;18.00
72770;DHT22;60893;50.848;12.072;2022-08-11T16:00:55;42.80;17.70
72770;DHT22;60893;50.848;12.072;2022-08-11T16:16:20;42.90;17.50
72770;DHT22;60893;50.848;12.072;2022-08-11T16:31:27;42.80;17.60
72770;DHT22;60893;50.848;12.072;2022-08-11T16:46:34;42.20;17.70
72770;DHT22;60893;50.848;12.072;2022-08-11T17:02:02;41.90;17.60
72770;DHT22;60893;50.848;12.072;2022-08-11T17:17:12;42.10;17.10
72770;DHT22;60893;50.848;12.072;2022-08-11T17:32:22;42.00;16.80
72770;DHT22;60893;50.848;12.072;2022-08-11T17:48:04;41.60;16.80
72770;DHT22;60893;50.848;12.072;2022-08-11T18:03:28;40.50;17.20
72770;DHT22;60893;50.848;12.072;2022-08-11T18:18:37;38.20;18.50
72770;DHT22;60893;50.848;12.072;2022-08-11T18:34:04;35.70;19.70
72770;DHT22;60893;50.848;12.072;2022-08-11T18:49:30;33.80;21.00
72770;DHT22;60893;50.848;12.072;2022-08-11T19:05:09;32.40;21.80
72770;DHT22;60893;50.848;12.072;2022-08-11T19:20:54;31.50;22.50
72770;DHT22;60893;50.848;12.072;2022-08-11T19:36:19;30.80;23.30
72770;DHT22;60893;50.848;12.072;2022-08-11T19:51:44;30.30;24.10
72770;DHT22;60893;50.848;12.072;2022-08-11T20:07:09;29.60;24.80
72770;DHT22;60893;50.848;12.072;2022-08-11T20:22:34;29.20;25.50
72770;DHT22;60893;50.848;12.072;2022-08-11T20:37:57;28.60;26.20
72770;DHT22;60893;50.848;12.072;2022-08-11T20:53:22;27.80;27.00
72770;DHT22;60893;50.848;12.072;2022-08-11T21:08:48;27.50;28.10
72770;DHT22;60893;50.848;12.072;2022-08-11T21:24:13;27.20;29.00
72770;DHT22;60893;50.848;12.072;2022-08-11T21:39:41;26.70;29.50
72770;DHT22;60893;50.848;12.072;2022-08-11T21:55:06;26.30;29.70
72770;DHT22;60893;50.848;12.072;2022-08-11T22:10:33;26.20;30.90
72770;DHT22;60893;50.848;12.072;2022-08-11T22:26:01;25.80;31.50
72770;DHT22;60893;50.848;12.072;2022-08-11T22:41:48;25.50;32.80
72770;DHT22;60893;50.848;12.072;2022-08-11T22:57:29;25.00;33.40
72770;DHT22;60893;50.848;12.072;2022-08-11T23:13:11;24.60;34.20
72770;DHT22;60893;50.848;12.072;2022-08-11T23:28:36;24.30;34.80
72770;DHT22;60893;50.848;12.072;2022-08-11T23:44:08;23.90;35.50
72770;DHT22;60893;50.848;12.072;2022-08-11T23:59:32;23.70;36.70
